sensor_id;sensor_type;location;lat;lon;timestamp;temperature;humidity
28767;DHT22;15921;52.034;20.650;2022-10-16T00:00:36;15.50;99.90
28767;DHT22;15921;52.034;20.650;2022-10-16T00:03:02;15.50;99.90
28767;DHT22;15921;52.034;20.650;2022-10-16T00:05:28;15.50;99.90
28767;DHT22;15921;52.034;20.650;2022-10-16T00:07:54;15.50;99.90
28767;DHT22;15921;52.034;20.650;2022-10-16T00:10:20;15.40;99.90
28767;DHT22;15921;52.034;20.650;2022-10-16T00:12:46;15.40;99.90
28767;DHT22;15921;52.034;20.650;2022-10-16T00:15:12;15.40;99.90
28767;DHT22;15921;52.034;20.650;2022-10-16T00:17:37;15.40;99.90
28767;DHT22;15921;52.034;20.650;2022-10-16T00:20:04;15.30;99.90
28767;DHT22;15921;52.034;20.650;2022-10-16T00:22:29;15.30;99.90
28767;DHT22;15921;52.034;20.650;2022-10-16T00:24:55;15.40;99.90
28767;DHT22;15921;52.034;20.650;2022-10-16T00:27:21;15.40;99.90
28767;DHT22;15921;52.034;20.650;2022-10-16T00:29:51;15.40;99.90
28767;DHT22;15921;52.034;20.650;2022-10-16T00:32:20;15.40;99.90
28767;DHT22;15921;52.034;20.650;2022-10-16T00:34:46;15.50;99.90
28767;DHT22;15921;52.034;20.650;2022-10-16T00:37:14;15.50;99.90
28767;DHT22;15921;52.034;20.650;2022-10-16T00:39:40;15.40;99.90
28767;DHT22;15921;52.034;20.650;2022-10-16T00:42:06;15.40;99.90
28767;DHT22;15921;52.034;20.650;2022-10-16T00:47:09;15.40;99.90
28767;DHT22;15921;52.034;20.650;2022-10-16T00:49:36;15.40;99.90
28767;DHT22;15921;52.034;20.650;2022-10-16T00:52:02;15.40;99.90
28767;DHT22;15921;52.034;20.650;2022-10-16T00:54:30;15.40;99.90
28767;DHT22;15921;52.034;20.650;2022-10-16T00:56:59;15.40;99.90
28767;DHT22;15921;52.034;20.650;2022-10-16T00:59:29;15.40;99.90
28767;DHT22;15921;52.034;20.650;2022-10-16T01:01:56;15.30;99.90
28767;DHT22;15921;52.034;20.650;2022-10-16T01:04:23;15.30;99.90
28767;DHT22;15921;52.034;20.650;2022-10-16T01:07:39;15.30;99.90
28767;DHT22;15921;52.034;20.650;2022-10-16T01:15:22;15.20;99.90
28767;DHT22;15921;52.034;20.650;2022-10-16T01:20:59;15.20;99.90
28767;DHT22;15921;52.034;20.650;2022-10-16T01:28:38;15.20;99.90
28767;DHT22;15921;52.034;20.650;2022-10-16T01:31:05;15.20;99.90
28767;DHT22;15921;52.034;20.650;2022-10-16T01:33:42;15.20;99.90
28767;DHT22;15921;52.034;20.650;2022-10-16T01:36:16;15.20;99.90
28767;DHT22;15921;52.034;20.650;2022-10-16T01:38:44;15.10;99.90
28767;DHT22;15921;52.034;20.650;2022-10-16T01:41:26;15.20;99.90
28767;DHT22;15921;52.034;20.650;2022-10-16T01:46:25;15.30;99.90
28767;DHT22;15921;52.034;20.650;2022-10-16T01:48:52;15.20;99.90
28767;DHT22;15921;52.034;20.650;2022-10-16T01:51:19;15.30;99.90
28767;DHT22;15921;52.034;20.650;2022-10-16T01:53:53;15.20;99.90
28767;DHT22;15921;52.034;20.650;2022-10-16T01:56:20;15.30;99.90
28767;DHT22;15921;52.034;20.650;2022-10-16T02:01:27;15.20;99.90
28767;DHT22;15921;52.034;20.650;2022-10-16T02:03:56;15.10;99.90
28767;DHT22;15921;52.034;20.650;2022-10-16T02:06:23;15.10;99.90
28767;DHT22;15921;52.034;20.650;2022-10-16T02:08:50;15.10;99.90
28767;DHT22;15921;52.034;20.650;2022-10-16T02:11:16;15.10;99.90
28767;DHT22;15921;52.034;20.650;2022-10-16T02:14:11;15.10;99.90
28767;DHT22;15921;52.034;20.650;2022-10-16T02:16:45;15.10;99.90
28767;DHT22;15921;52.034;20.650;2022-10-16T02:19:12;15.10;99.90
28767;DHT22;15921;52.034;20.650;2022-10-16T02:29:53;14.80;99.90
28767;DHT22;15921;52.034;20.650;2022-10-16T02:32:25;14.70;99.90
28767;DHT22;15921;52.034;20.650;2022-10-16T02:34:54;14.70;99.90
28767;DHT22;15921;52.034;20.650;2022-10-16T02:37:20;14.70;99.90
28767;DHT22;15921;52.034;20.650;2022-10-16T02:39:46;14.70;99.90
28767;DHT22;15921;52.034;20.650;2022-10-16T02:42:17;14.70;99.90
28767;DHT22;15921;52.034;20.650;2022-10-16T02:44:43;14.70;99.90
28767;DHT22;15921;52.034;20.650;2022-10-16T02:47:08;14.70;99.90
28767;DHT22;15921;52.034;20.650;2022-10-16T02:49:34;14.70;99.90
28767;DHT22;15921;52.034;20.650;2022-10-16T02:52:00;14.70;99.90
28767;DHT22;15921;52.034;20.650;2022-10-16T02:54:26;14.80;99.90
28767;DHT22;15921;52.034;20.650;2022-10-16T02:56:51;14.80;99.90
28767;DHT22;15921;52.034;20.650;2022-10-16T02:59:17;14.70;99.90
28767;DHT22;15921;52.034;20.650;2022-10-16T03:01:43;14.80;99.90
28767;DHT22;15921;52.034;20.650;2022-10-16T03:04:09;14.80;99.90
28767;DHT22;15921;52.034;20.650;2022-10-16T03:06:35;14.80;99.90
28767;DHT22;15921;52.034;20.650;2022-10-16T03:09:01;14.80;99.90
28767;DHT22;15921;52.034;20.650;2022-10-16T03:11:26;14.80;99.90
28767;DHT22;15921;52.034;20.650;2022-10-16T03:13:53;14.80;99.90
28767;DHT22;15921;52.034;20.650;2022-10-16T03:16:19;14.80;99.90
28767;DHT22;15921;52.034;20.650;2022-10-16T03:18:48;14.80;99.90
28767;DHT22;15921;52.034;20.650;2022-10-16T03:21:15;14.80;99.90
28767;DHT22;15921;52.034;20.650;2022-10-16T03:23:40;14.70;99.90
28767;DHT22;15921;52.034;20.650;2022-10-16T03:26:06;14.70;99.90
28767;DHT22;15921;52.034;20.650;2022-10-16T03:28:32;14.60;99.90
28767;DHT22;15921;52.034;20.650;2022-10-16T03:30:57;14.60;99.90
28767;DHT22;15921;52.034;20.650;2022-10-16T03:33:23;14.60;99.90
28767;DHT22;15921;52.034;20.650;2022-10-16T03:35:53;14.60;99.90
28767;DHT22;15921;52.034;20.650;2022-10-16T03:38:19;14.50;99.90
28767;DHT22;15921;52.034;20.650;2022-10-16T03:40:45;14.40;99.90
28767;DHT22;15921;52.034;20.650;2022-10-16T03:43:11;14.30;99.90
28767;DHT22;15921;52.034;20.650;2022-10-16T03:45:37;14.20;99.90
28767;DHT22;15921;52.034;20.650;2022-10-16T03:48:03;14.00;99.90
28767;DHT22;15921;52.034;20.650;2022-10-16T03:50:29;14.00;99.90
28767;DHT22;15921;52.034;20.650;2022-10-16T03:52:55;13.80;99.90
28767;DHT22;15921;52.034;20.650;2022-10-16T03:55:20;13.70;99.90
28767;DHT22;15921;52.034;20.650;2022-10-16T03:57:46;13.60;99.90
28767;DHT22;15921;52.034;20.650;2022-10-16T04:00:12;13.50;99.90
28767;DHT22;15921;52.034;20.650;2022-10-16T04:02:38;13.40;99.90
28767;DHT22;15921;52.034;20.650;2022-10-16T04:05:04;13.30;99.90
28767;DHT22;15921;52.034;20.650;2022-10-16T04:07:30;13.30;99.90
28767;DHT22;15921;52.034;20.650;2022-10-16T04:09:56;13.20;99.90
28767;DHT22;15921;52.034;20.650;2022-10-16T04:12:23;13.10;99.90
28767;DHT22;15921;52.034;20.650;2022-10-16T04:14:48;13.10;99.90
28767;DHT22;15921;52.034;20.650;2022-10-16T04:17:14;13.00;99.90
28767;DHT22;15921;52.034;20.650;2022-10-16T04:19:40;13.00;99.90
28767;DHT22;15921;52.034;20.650;2022-10-16T04:22:05;12.90;99.90
28767;DHT22;15921;52.034;20.650;2022-10-16T04:24:31;12.90;99.90
28767;DHT22;15921;52.034;20.650;2022-10-16T04:26:57;12.90;99.90
28767;DHT22;15921;52.034;20.650;2022-10-16T04:29:23;12.80;99.90
28767;DHT22;15921;52.034;20.650;2022-10-16T04:31:48;12.80;99.90
28767;DHT22;15921;52.034;20.650;2022-10-16T04:34:14;12.70;99.90
28767;DHT22;15921;52.034;20.650;2022-10-16T04:36:40;12.70;99.90
28767;DHT22;15921;52.034;20.650;2022-10-16T04:39:06;12.70;99.90
28767;DHT22;15921;52.034;20.650;2022-10-16T04:41:31;12.70;99.90
28767;DHT22;15921;52.034;20.650;2022-10-16T04:43:57;12.60;99.90
28767;DHT22;15921;52.034;20.650;2022-10-16T04:46:23;12.50;99.90
28767;DHT22;15921;52.034;20.650;2022-10-16T04:48:48;12.50;99.90
28767;DHT22;15921;52.034;20.650;2022-10-16T04:51:14;12.50;99.90
28767;DHT22;15921;52.034;20.650;2022-10-16T04:53:40;12.40;99.90
28767;DHT22;15921;52.034;20.650;2022-10-16T04:56:06;12.40;99.90
28767;DHT22;15921;52.034;20.650;2022-10-16T04:58:31;12.40;99.90
28767;DHT22;15921;52.034;20.650;2022-10-16T05:00:57;12.30;99.90
28767;DHT22;15921;52.034;20.650;2022-10-16T05:03:23;12.40;99.90
28767;DHT22;15921;52.034;20.650;2022-10-16T05:05:48;12.50;99.90
28767;DHT22;15921;52.034;20.650;2022-10-16T05:08:15;12.50;99.90
28767;DHT22;15921;52.034;20.650;2022-10-16T05:10:42;12.50;99.90
28767;DHT22;15921;52.034;20.650;2022-10-16T05:13:08;12.50;99.90
28767;DHT22;15921;52.034;20.650;2022-10-16T05:15:34;12.40;99.90
28767;DHT22;15921;52.034;20.650;2022-10-16T05:18:00;12.40;99.90
28767;DHT22;15921;52.034;20.650;2022-10-16T05:20:26;12.30;99.90
28767;DHT22;15921;52.034;20.650;2022-10-16T05:22:51;12.30;99.90
28767;DHT22;15921;52.034;20.650;2022-10-16T05:25:17;12.30;99.90
28767;DHT22;15921;52.034;20.650;2022-10-16T05:27:46;12.30;99.90
28767;DHT22;15921;52.034;20.650;2022-10-16T05:30:12;12.30;99.90
28767;DHT22;15921;52.034;20.650;2022-10-16T05:32:38;12.30;99.90
28767;DHT22;15921;52.034;20.650;2022-10-16T05:35:04;12.30;99.90
28767;DHT22;15921;52.034;20.650;2022-10-16T05:37:30;12.30;99.90
28767;DHT22;15921;52.034;20.650;2022-10-16T05:39:55;12.40;99.90
28767;DHT22;15921;52.034;20.650;2022-10-16T05:42:21;12.50;99.90
28767;DHT22;15921;52.034;20.650;2022-10-16T05:44:47;12.50;99.90
28767;DHT22;15921;52.034;20.650;2022-10-16T05:47:13;12.60;99.90
28767;DHT22;15921;52.034;20.650;2022-10-16T05:49:39;12.70;99.90
28767;DHT22;15921;52.034;20.650;2022-10-16T05:52:05;12.70;99.90
28767;DHT22;15921;52.034;20.650;2022-10-16T05:54:31;12.80;99.90
28767;DHT22;15921;52.034;20.650;2022-10-16T05:56:56;12.90;99.90
28767;DHT22;15921;52.034;20.650;2022-10-16T05:59:22;13.00;99.90
28767;DHT22;15921;52.034;20.650;2022-10-16T06:01:48;13.20;99.90
28767;DHT22;15921;52.034;20.650;2022-10-16T06:04:14;13.30;99.90
28767;DHT22;15921;52.034;20.650;2022-10-16T06:06:40;13.50;99.90
28767;DHT22;15921;52.034;20.650;2022-10-16T06:09:05;13.60;99.90
28767;DHT22;15921;52.034;20.650;2022-10-16T06:11:33;13.70;99.90
28767;DHT22;15921;52.034;20.650;2022-10-16T06:14:00;13.80;99.90
28767;DHT22;15921;52.034;20.650;2022-10-16T06:16:28;13.90;99.90
28767;DHT22;15921;52.034;20.650;2022-10-16T06:18:55;14.00;99.90
28767;DHT22;15921;52.034;20.650;2022-10-16T06:21:24;14.10;99.90
28767;DHT22;15921;52.034;20.650;2022-10-16T06:23:56;14.10;99.90
28767;DHT22;15921;52.034;20.650;2022-10-16T06:26:24;14.20;99.90
28767;DHT22;15921;52.034;20.650;2022-10-16T06:28:50;14.20;99.90
28767;DHT22;15921;52.034;20.650;2022-10-16T06:31:16;14.30;99.90
28767;DHT22;15921;52.034;20.650;2022-10-16T06:33:42;14.40;99.90
28767;DHT22;15921;52.034;20.650;2022-10-16T06:36:14;14.50;99.90
28767;DHT22;15921;52.034;20.650;2022-10-16T06:38:41;14.70;99.90
28767;DHT22;15921;52.034;20.650;2022-10-16T06:41:07;14.80;99.90
28767;DHT22;15921;52.034;20.650;2022-10-16T06:43:34;14.90;99.90
28767;DHT22;15921;52.034;20.650;2022-10-16T06:46:01;15.00;99.90
28767;DHT22;15921;52.034;20.650;2022-10-16T06:48:29;15.10;99.90
28767;DHT22;15921;52.034;20.650;2022-10-16T06:53:21;15.40;99.90
28767;DHT22;15921;52.034;20.650;2022-10-16T06:55:47;15.50;99.90
28767;DHT22;15921;52.034;20.650;2022-10-16T06:58:12;15.50;99.90
28767;DHT22;15921;52.034;20.650;2022-10-16T07:00:38;15.50;99.90
28767;DHT22;15921;52.034;20.650;2022-10-16T07:03:04;15.60;99.90
28767;DHT22;15921;52.034;20.650;2022-10-16T07:05:29;15.50;99.90
28767;DHT22;15921;52.034;20.650;2022-10-16T07:07:55;15.40;99.90
28767;DHT22;15921;52.034;20.650;2022-10-16T07:10:21;15.40;99.90
28767;DHT22;15921;52.034;20.650;2022-10-16T07:12:49;15.40;99.90
28767;DHT22;15921;52.034;20.650;2022-10-16T07:15:15;15.50;99.90
28767;DHT22;15921;52.034;20.650;2022-10-16T07:17:41;15.50;99.90
28767;DHT22;15921;52.034;20.650;2022-10-16T07:20:07;15.60;99.90
28767;DHT22;15921;52.034;20.650;2022-10-16T07:22:32;15.60;99.90
28767;DHT22;15921;52.034;20.650;2022-10-16T07:24:58;15.70;99.90
28767;DHT22;15921;52.034;20.650;2022-10-16T07:27:24;15.80;99.90
28767;DHT22;15921;52.034;20.650;2022-10-16T07:29:50;15.90;99.90
28767;DHT22;15921;52.034;20.650;2022-10-16T07:32:16;16.10;99.90
28767;DHT22;15921;52.034;20.650;2022-10-16T07:34:41;16.20;99.90
28767;DHT22;15921;52.034;20.650;2022-10-16T07:37:07;16.30;99.90
28767;DHT22;15921;52.034;20.650;2022-10-16T07:39:33;16.40;99.90
28767;DHT22;15921;52.034;20.650;2022-10-16T07:41:59;16.50;99.90
28767;DHT22;15921;52.034;20.650;2022-10-16T07:44:24;16.70;99.90
28767;DHT22;15921;52.034;20.650;2022-10-16T07:46:50;16.90;99.90
28767;DHT22;15921;52.034;20.650;2022-10-16T07:49:16;17.00;99.90
28767;DHT22;15921;52.034;20.650;2022-10-16T07:51:41;17.10;99.90
28767;DHT22;15921;52.034;20.650;2022-10-16T07:54:08;17.20;99.90
28767;DHT22;15921;52.034;20.650;2022-10-16T07:56:34;17.40;99.90
28767;DHT22;15921;52.034;20.650;2022-10-16T07:59:00;17.60;99.90
28767;DHT22;15921;52.034;20.650;2022-10-16T08:01:26;17.80;99.90
28767;DHT22;15921;52.034;20.650;2022-10-16T08:03:53;17.90;99.90
28767;DHT22;15921;52.034;20.650;2022-10-16T08:06:20;18.10;99.90
28767;DHT22;15921;52.034;20.650;2022-10-16T08:08:46;18.30;99.90
28767;DHT22;15921;52.034;20.650;2022-10-16T08:11:13;18.40;99.90
28767;DHT22;15921;52.034;20.650;2022-10-16T08:13:40;18.70;99.90
28767;DHT22;15921;52.034;20.650;2022-10-16T08:16:07;18.80;99.90
28767;DHT22;15921;52.034;20.650;2022-10-16T08:18:34;19.00;99.90
28767;DHT22;15921;52.034;20.650;2022-10-16T08:21:01;19.10;99.90
28767;DHT22;15921;52.034;20.650;2022-10-16T08:23:28;19.10;99.90
28767;DHT22;15921;52.034;20.650;2022-10-16T08:25:54;19.20;99.90
28767;DHT22;15921;52.034;20.650;2022-10-16T08:28:21;19.30;99.90
28767;DHT22;15921;52.034;20.650;2022-10-16T08:30:47;19.40;99.90
28767;DHT22;15921;52.034;20.650;2022-10-16T08:33:13;19.50;99.90
28767;DHT22;15921;52.034;20.650;2022-10-16T08:35:39;19.60;99.90
28767;DHT22;15921;52.034;20.650;2022-10-16T08:38:06;19.50;99.90
28767;DHT22;15921;52.034;20.650;2022-10-16T08:40:33;19.50;99.90
28767;DHT22;15921;52.034;20.650;2022-10-16T08:46:26;19.60;99.90
28767;DHT22;15921;52.034;20.650;2022-10-16T08:48:52;19.50;99.90
28767;DHT22;15921;52.034;20.650;2022-10-16T08:51:24;19.50;99.90
28767;DHT22;15921;52.034;20.650;2022-10-16T08:54:37;19.60;99.90
28767;DHT22;15921;52.034;20.650;2022-10-16T08:56:43;19.50;99.90
28767;DHT22;15921;52.034;20.650;2022-10-16T08:59:14;19.30;99.90
28767;DHT22;15921;52.034;20.650;2022-10-16T09:01:45;19.30;99.90
28767;DHT22;15921;52.034;20.650;2022-10-16T09:04:51;19.30;99.90
28767;DHT22;15921;52.034;20.650;2022-10-16T09:13:10;19.50;99.90
28767;DHT22;15921;52.034;20.650;2022-10-16T09:15:47;19.50;99.90
28767;DHT22;15921;52.034;20.650;2022-10-16T09:21:44;19.60;99.90
28767;DHT22;15921;52.034;20.650;2022-10-16T09:24:20;19.60;99.90
28767;DHT22;15921;52.034;20.650;2022-10-16T09:26:47;19.70;99.90
28767;DHT22;15921;52.034;20.650;2022-10-16T09:29:14;19.80;99.90
28767;DHT22;15921;52.034;20.650;2022-10-16T09:31:41;19.80;99.90
28767;DHT22;15921;52.034;20.650;2022-10-16T09:34:30;19.80;99.90
28767;DHT22;15921;52.034;20.650;2022-10-16T09:36:58;19.70;99.90
28767;DHT22;15921;52.034;20.650;2022-10-16T09:39:25;19.70;99.90
28767;DHT22;15921;52.034;20.650;2022-10-16T09:41:51;19.70;99.90
28767;DHT22;15921;52.034;20.650;2022-10-16T09:44:24;19.70;99.90
28767;DHT22;15921;52.034;20.650;2022-10-16T09:47:04;19.60;99.90
28767;DHT22;15921;52.034;20.650;2022-10-16T09:49:30;19.60;99.90
28767;DHT22;15921;52.034;20.650;2022-10-16T09:52:12;19.60;99.90
28767;DHT22;15921;52.034;20.650;2022-10-16T09:54:55;19.60;99.90
28767;DHT22;15921;52.034;20.650;2022-10-16T09:57:22;19.70;99.90
28767;DHT22;15921;52.034;20.650;2022-10-16T09:59:50;20.00;99.90
28767;DHT22;15921;52.034;20.650;2022-10-16T10:02:18;20.30;99.90
28767;DHT22;15921;52.034;20.650;2022-10-16T10:04:50;20.40;99.90
28767;DHT22;15921;52.034;20.650;2022-10-16T10:07:19;20.50;99.90
28767;DHT22;15921;52.034;20.650;2022-10-16T10:09:46;20.60;99.90
28767;DHT22;15921;52.034;20.650;2022-10-16T10:12:27;20.60;99.90
28767;DHT22;15921;52.034;20.650;2022-10-16T10:15:07;21.00;99.80
28767;DHT22;15921;52.034;20.650;2022-10-16T10:17:49;21.40;99.10
28767;DHT22;15921;52.034;20.650;2022-10-16T10:20:31;21.60;98.00
28767;DHT22;15921;52.034;20.650;2022-10-16T10:23:13;21.70;97.50
28767;DHT22;15921;52.034;20.650;2022-10-16T10:28:45;22.00;96.80
28767;DHT22;15921;52.034;20.650;2022-10-16T10:31:20;22.20;95.90
28767;DHT22;15921;52.034;20.650;2022-10-16T10:34:30;22.10;96.00
28767;DHT22;15921;52.034;20.650;2022-10-16T10:37:25;22.10;95.30
28767;DHT22;15921;52.034;20.650;2022-10-16T10:51:12;22.40;94.60
28767;DHT22;15921;52.034;20.650;2022-10-16T10:54:14;22.70;94.10
28767;DHT22;15921;52.034;20.650;2022-10-16T10:57:17;23.00;93.40
28767;DHT22;15921;52.034;20.650;2022-10-16T11:02:41;23.20;92.40
28767;DHT22;15921;52.034;20.650;2022-10-16T11:05:31;23.20;91.70
28767;DHT22;15921;52.034;20.650;2022-10-16T11:08:03;23.10;91.60
28767;DHT22;15921;52.034;20.650;2022-10-16T11:10:51;22.80;92.00
28767;DHT22;15921;52.034;20.650;2022-10-16T11:16:28;22.90;91.60
28767;DHT22;15921;52.034;20.650;2022-10-16T11:18:56;22.90;91.20
28767;DHT22;15921;52.034;20.650;2022-10-16T11:21:26;22.90;91.60
28767;DHT22;15921;52.034;20.650;2022-10-16T11:24:01;23.00;91.60
28767;DHT22;15921;52.034;20.650;2022-10-16T11:26:35;23.20;91.00
28767;DHT22;15921;52.034;20.650;2022-10-16T11:29:13;24.00;89.60
28767;DHT22;15921;52.034;20.650;2022-10-16T11:31:46;24.90;87.70
28767;DHT22;15921;52.034;20.650;2022-10-16T11:34:59;25.50;83.40
28767;DHT22;15921;52.034;20.650;2022-10-16T11:37:23;25.90;79.80
28767;DHT22;15921;52.034;20.650;2022-10-16T11:39:52;25.40;80.30
28767;DHT22;15921;52.034;20.650;2022-10-16T11:42:32;24.80;81.50
28767;DHT22;15921;52.034;20.650;2022-10-16T11:45:40;24.60;83.00
28767;DHT22;15921;52.034;20.650;2022-10-16T11:51:00;23.90;84.60
28767;DHT22;15921;52.034;20.650;2022-10-16T11:53:51;24.40;84.00
28767;DHT22;15921;52.034;20.650;2022-10-16T11:56:20;25.30;81.20
28767;DHT22;15921;52.034;20.650;2022-10-16T11:59:13;26.60;78.60
28767;DHT22;15921;52.034;20.650;2022-10-16T12:02:33;28.00;74.30
28767;DHT22;15921;52.034;20.650;2022-10-16T12:05:20;28.50;70.90
28767;DHT22;15921;52.034;20.650;2022-10-16T12:08:08;29.00;69.70
28767;DHT22;15921;52.034;20.650;2022-10-16T12:10:36;29.10;68.50
28767;DHT22;15921;52.034;20.650;2022-10-16T12:18:33;26.10;72.10
28767;DHT22;15921;52.034;20.650;2022-10-16T12:21:00;25.90;75.20
28767;DHT22;15921;52.034;20.650;2022-10-16T12:23:38;26.80;73.90
28767;DHT22;15921;52.034;20.650;2022-10-16T12:26:05;27.80;71.00
28767;DHT22;15921;52.034;20.650;2022-10-16T12:28:32;29.00;68.90
28767;DHT22;15921;52.034;20.650;2022-10-16T12:31:02;30.30;65.20
28767;DHT22;15921;52.034;20.650;2022-10-16T12:33:30;31.10;63.10
28767;DHT22;15921;52.034;20.650;2022-10-16T12:36:00;31.10;61.90
28767;DHT22;15921;52.034;20.650;2022-10-16T12:38:32;31.70;60.40
28767;DHT22;15921;52.034;20.650;2022-10-16T12:41:05;32.70;58.70
28767;DHT22;15921;52.034;20.650;2022-10-16T12:43:41;33.40;57.10
28767;DHT22;15921;52.034;20.650;2022-10-16T12:48:36;30.90;58.90
28767;DHT22;15921;52.034;20.650;2022-10-16T13:02:05;31.10;59.00
28767;DHT22;15921;52.034;20.650;2022-10-16T13:10:39;28.60;63.10
28767;DHT22;15921;52.034;20.650;2022-10-16T13:16:17;26.50;67.80
28767;DHT22;15921;52.034;20.650;2022-10-16T13:24:07;24.10;75.50
28767;DHT22;15921;52.034;20.650;2022-10-16T13:26:44;23.70;77.30
28767;DHT22;15921;52.034;20.650;2022-10-16T13:29:12;23.30;78.70
28767;DHT22;15921;52.034;20.650;2022-10-16T13:31:39;23.00;80.30
28767;DHT22;15921;52.034;20.650;2022-10-16T13:34:10;22.80;81.70
28767;DHT22;15921;52.034;20.650;2022-10-16T13:36:48;22.60;83.60
28767;DHT22;15921;52.034;20.650;2022-10-16T13:39:29;22.30;85.80
28767;DHT22;15921;52.034;20.650;2022-10-16T13:42:24;22.20;87.80
28767;DHT22;15921;52.034;20.650;2022-10-16T13:44:52;22.10;89.70
28767;DHT22;15921;52.034;20.650;2022-10-16T13:47:21;21.90;90.40
28767;DHT22;15921;52.034;20.650;2022-10-16T13:50:03;21.90;91.00
28767;DHT22;15921;52.034;20.650;2022-10-16T13:52:29;21.90;91.60
28767;DHT22;15921;52.034;20.650;2022-10-16T13:54:55;21.80;92.00
28767;DHT22;15921;52.034;20.650;2022-10-16T13:57:23;21.80;92.30
28767;DHT22;15921;52.034;20.650;2022-10-16T13:59:50;21.70;92.80
28767;DHT22;15921;52.034;20.650;2022-10-16T14:02:25;21.70;93.20
28767;DHT22;15921;52.034;20.650;2022-10-16T14:04:52;21.70;93.50
28767;DHT22;15921;52.034;20.650;2022-10-16T14:07:25;21.70;93.70
28767;DHT22;15921;52.034;20.650;2022-10-16T14:09:53;21.70;94.00
28767;DHT22;15921;52.034;20.650;2022-10-16T14:12:20;21.70;94.20
28767;DHT22;15921;52.034;20.650;2022-10-16T14:14:50;21.60;94.50
28767;DHT22;15921;52.034;20.650;2022-10-16T14:19:48;21.50;95.00
28767;DHT22;15921;52.034;20.650;2022-10-16T14:22:29;21.50;95.30
28767;DHT22;15921;52.034;20.650;2022-10-16T14:24:56;21.60;95.40
28767;DHT22;15921;52.034;20.650;2022-10-16T14:27:31;21.60;95.20
28767;DHT22;15921;52.034;20.650;2022-10-16T14:32:41;21.70;95.30
28767;DHT22;15921;52.034;20.650;2022-10-16T14:35:24;21.70;95.20
28767;DHT22;15921;52.034;20.650;2022-10-16T14:37:54;21.70;95.40
28767;DHT22;15921;52.034;20.650;2022-10-16T14:40:24;21.80;95.30
28767;DHT22;15921;52.034;20.650;2022-10-16T14:42:50;21.70;95.40
28767;DHT22;15921;52.034;20.650;2022-10-16T14:45:26;21.60;95.70
28767;DHT22;15921;52.034;20.650;2022-10-16T14:47:58;21.60;95.70
28767;DHT22;15921;52.034;20.650;2022-10-16T14:50:24;21.60;96.00
28767;DHT22;15921;52.034;20.650;2022-10-16T14:52:50;21.50;96.20
28767;DHT22;15921;52.034;20.650;2022-10-16T14:55:16;21.40;96.80
28767;DHT22;15921;52.034;20.650;2022-10-16T14:57:43;21.40;96.80
28767;DHT22;15921;52.034;20.650;2022-10-16T15:00:19;21.40;97.00
28767;DHT22;15921;52.034;20.650;2022-10-16T15:02:46;21.20;97.50
28767;DHT22;15921;52.034;20.650;2022-10-16T15:05:24;21.00;97.70
28767;DHT22;15921;52.034;20.650;2022-10-16T15:07:52;20.90;98.20
28767;DHT22;15921;52.034;20.650;2022-10-16T15:10:23;20.70;98.70
28767;DHT22;15921;52.034;20.650;2022-10-16T15:12:49;20.60;99.20
28767;DHT22;15921;52.034;20.650;2022-10-16T15:15:38;20.50;99.60
28767;DHT22;15921;52.034;20.650;2022-10-16T15:18:05;20.50;99.90
28767;DHT22;15921;52.034;20.650;2022-10-16T15:20:34;20.40;99.90
28767;DHT22;15921;52.034;20.650;2022-10-16T15:23:05;20.30;99.90
28767;DHT22;15921;52.034;20.650;2022-10-16T15:25:52;20.30;99.90
28767;DHT22;15921;52.034;20.650;2022-10-16T15:28:18;20.20;99.90
28767;DHT22;15921;52.034;20.650;2022-10-16T15:30:45;20.10;99.90
28767;DHT22;15921;52.034;20.650;2022-10-16T15:33:26;20.10;99.90
28767;DHT22;15921;52.034;20.650;2022-10-16T15:35:58;20.10;99.90
28767;DHT22;15921;52.034;20.650;2022-10-16T15:38:24;20.00;99.90
28767;DHT22;15921;52.034;20.650;2022-10-16T15:40:51;19.90;99.90
28767;DHT22;15921;52.034;20.650;2022-10-16T15:43:17;19.90;99.90
28767;DHT22;15921;52.034;20.650;2022-10-16T15:45:44;19.80;99.90
28767;DHT22;15921;52.034;20.650;2022-10-16T15:48:17;19.70;99.90
28767;DHT22;15921;52.034;20.650;2022-10-16T15:50:42;19.60;99.90
28767;DHT22;15921;52.034;20.650;2022-10-16T15:53:08;19.60;99.90
28767;DHT22;15921;52.034;20.650;2022-10-16T15:55:34;19.50;99.90
28767;DHT22;15921;52.034;20.650;2022-10-16T15:58:03;19.40;99.90
28767;DHT22;15921;52.034;20.650;2022-10-16T16:00:29;19.30;99.90
28767;DHT22;15921;52.034;20.650;2022-10-16T16:02:55;19.20;99.90
28767;DHT22;15921;52.034;20.650;2022-10-16T16:05:21;19.20;99.90
28767;DHT22;15921;52.034;20.650;2022-10-16T16:07:48;19.10;99.90
28767;DHT22;15921;52.034;20.650;2022-10-16T16:10:14;19.10;99.90
28767;DHT22;15921;52.034;20.650;2022-10-16T16:12:40;19.00;99.90
28767;DHT22;15921;52.034;20.650;2022-10-16T16:15:06;18.90;99.90
28767;DHT22;15921;52.034;20.650;2022-10-16T16:17:33;18.90;99.90
28767;DHT22;15921;52.034;20.650;2022-10-16T16:20:00;18.80;99.90
28767;DHT22;15921;52.034;20.650;2022-10-16T16:22:26;18.70;99.90
28767;DHT22;15921;52.034;20.650;2022-10-16T16:24:52;18.60;99.90
28767;DHT22;15921;52.034;20.650;2022-10-16T16:27:18;18.60;99.90
28767;DHT22;15921;52.034;20.650;2022-10-16T16:29:46;18.50;99.90
28767;DHT22;15921;52.034;20.650;2022-10-16T16:32:12;18.50;99.90
28767;DHT22;15921;52.034;20.650;2022-10-16T16:34:38;18.40;99.90
28767;DHT22;15921;52.034;20.650;2022-10-16T16:37:03;18.40;99.90
28767;DHT22;15921;52.034;20.650;2022-10-16T16:39:29;18.30;99.90
28767;DHT22;15921;52.034;20.650;2022-10-16T16:41:56;18.30;99.90
28767;DHT22;15921;52.034;20.650;2022-10-16T16:44:23;18.20;99.90
28767;DHT22;15921;52.034;20.650;2022-10-16T16:46:49;18.20;99.90
28767;DHT22;15921;52.034;20.650;2022-10-16T16:49:15;18.20;99.90
28767;DHT22;15921;52.034;20.650;2022-10-16T16:51:41;18.10;99.90
28767;DHT22;15921;52.034;20.650;2022-10-16T16:54:07;18.10;99.90
28767;DHT22;15921;52.034;20.650;2022-10-16T16:56:33;18.00;99.90
28767;DHT22;15921;52.034;20.650;2022-10-16T16:58:59;18.00;99.90
28767;DHT22;15921;52.034;20.650;2022-10-16T17:01:26;18.00;99.90
28767;DHT22;15921;52.034;20.650;2022-10-16T17:03:54;17.90;99.90
28767;DHT22;15921;52.034;20.650;2022-10-16T17:06:23;17.90;99.90
28767;DHT22;15921;52.034;20.650;2022-10-16T17:08:50;17.90;99.90
28767;DHT22;15921;52.034;20.650;2022-10-16T17:11:21;17.80;99.90
28767;DHT22;15921;52.034;20.650;2022-10-16T17:13:47;17.80;99.90
28767;DHT22;15921;52.034;20.650;2022-10-16T17:16:13;17.70;99.90